Flight Track Log - Related Links

Times and Time Zones

All times are in EDT time to prevent confusion due to time zone crossing. See the N546QS flight status page for this flight to view local times or setup timezone preferences in your user account.


Time Position Orientation Groundspeed Altitude Reporting Facility
EDT Latitude Longitude Course Direction KTS MPH feet Rate Location/Type
Mon 11:35:58 AM 32.2044 -81.3017 333° Northwest 275 316 7,400  Level Jacksonville Center
Mon 11:36:58 AM 32.2719 -81.3372 336° Northwest 283 326 10,500 3,550 Climbing Jacksonville Center
Mon 11:37:58 AM 32.3622 -81.3897 334° Northwest 307 353 14,500 3,500 Climbing Jacksonville Center
Mon 11:38:58 AM 32.4422 -81.4353 334° Northwest 339 390 17,500 3,250 Climbing Jacksonville Center
Mon 11:39:58 AM 32.5408 -81.4928 334° Northwest 350 403 21,000 3,100 Climbing Jacksonville Center
Mon 11:40:00 AM 32.5484 -81.4515 333° Northwest  Level Estimated
Mon 11:40:58 AM 32.6269 -81.5433 334° Northwest 370 426 23,700  Level Jacksonville Center
Mon 11:41:00 AM 32.6535 -81.5142 333° Northwest  Level Estimated
Mon 11:41:58 AM 32.7256 -81.5961 336° Northwest 381 438 26,300  Level Jacksonville Center
Mon 11:44:20 AM 32.9819 -81.7631 331° Northwest 429 494 31,800 1,960 Climbing Atlanta Center
Mon 11:45:20 AM 33.0819 -81.8547 322° Northwest 441 507 32,900 1,000 Climbing Atlanta Center
Mon 11:46:20 AM 33.1714 -81.9617 315° West 447 514 33,800 950 Climbing Atlanta Center
Mon 11:47:20 AM 33.2567 -82.0689 314° West 447 514 34,800 1,000 Climbing Atlanta Center
Mon 11:48:20 AM 33.3500 -82.1711 318° Northwest 452 520 35,800 1,000 Climbing Atlanta Center
Mon 11:49:20 AM 33.4617 -82.2458 331° Northwest 452 520 36,800 800 Climbing Atlanta Center
Mon 11:50:20 AM 33.5714 -82.3233 330° Northwest 461 531 37,400 750 Climbing Atlanta Center
Mon 11:51:20 AM 33.6831 -82.3961 332° Northwest 461 531 38,300 800 Climbing Atlanta Center
Mon 11:52:20 AM 33.7800 -82.4642 330° Northwest 461 531 39,000 750 Climbing Atlanta Center
Mon 11:53:20 AM 33.8936 -82.5397 331° Northwest 461 531 39,800 500 Climbing Atlanta Center
Mon 11:54:20 AM 34.0031 -82.6156 330° Northwest 456 525 40,000 100 Climbing Atlanta Center
Mon 11:55:20 AM 34.1208 -82.6914 332° Northwest 462 532 40,000  Level Atlanta Center
Mon 11:56:20 AM 34.2322 -82.7675 331° Northwest 470 541 40,000  Level Atlanta Center
Mon 11:57:20 AM 34.3436 -82.8436 331° Northwest 465 535 40,000  Level Atlanta Center
Mon 11:58:20 AM 34.4569 -82.9228 330° Northwest 465 535 40,000  Level Atlanta Center
Mon 11:59:20 AM 34.5683 -82.9969 331° Northwest 458 527 40,000  Level Atlanta Center
Mon 12:00:20 PM 34.6983 -83.0889 330° Northwest 470 541 40,000  Level Atlanta Center
Mon 12:01:20 PM 34.8158 -83.1683 331° Northwest 470 541 40,000  Level Atlanta Center
Mon 12:02:20 PM 34.9167 -83.2383 330° Northwest 467 537 40,000  Level Atlanta Center
Mon 12:03:20 PM 35.0319 -83.3258 328° Northwest 467 537 40,000  Level Atlanta Center
Mon 12:04:20 PM 35.1469 -83.4089 329° Northwest 474 545 40,000  Level Atlanta Center
Mon 12:05:20 PM 35.2622 -83.4867 331° Northwest 474 545 40,000  Level Atlanta Center
Mon 12:06:20 PM 35.3731 -83.5650 330° Northwest 474 545 40,000  Level Atlanta Center
Mon 12:07:20 PM 35.4881 -83.6433 331° Northwest 469 540 40,000  Level Atlanta Center
Mon 12:08:20 PM 35.6011 -83.7244 330° Northwest 469 540 40,000  Level Atlanta Center
Mon 12:09:20 PM 35.7139 -83.8061 330° Northwest 469 540 40,000  Level Atlanta Center
Mon 12:10:20 PM 35.8286 -83.8875 330° Northwest 469 540 40,000  Level Atlanta Center
Mon 12:11:20 PM 35.9414 -83.9694 330° Northwest 469 540 40,000  Level Atlanta Center
Mon 12:13:15 PM 36.1667 -84.1144 333° Northwest 473 544 40,000  Level Indianapolis Center
Mon 12:14:17 PM 36.2939 -84.1656 342° North 481 554 40,000  Level Indianapolis Center
Mon 12:15:19 PM 36.4217 -84.2192 341° North 484 557 40,000  Level Indianapolis Center
Mon 12:16:20 PM 36.5658 -84.2806 341° North 489 563 40,000  Level Indianapolis Center
Mon 12:17:22 PM 36.6964 -84.3358 341° North 492 566 40,000  Level Indianapolis Center
Mon 12:18:23 PM 36.8294 -84.3925 341° North 498 573 40,000  Level Indianapolis Center
Mon 12:19:25 PM 36.9650 -84.4497 341° North 505 581 40,000  Level Indianapolis Center
Mon 12:20:26 PM 37.0989 -84.5078 341° North 507 583 40,000  Level Indianapolis Center
Mon 12:21:28 PM 37.2514 -84.5744 341° North 499 574 40,000  Level Indianapolis Center
Mon 12:22:29 PM 37.3825 -84.6308 341° North 496 571 40,000  Level Indianapolis Center
Mon 12:23:31 PM 37.5147 -84.6878 341° North 498 573 40,000  Level Indianapolis Center
Mon 12:24:32 PM 37.6447 -84.7453 341° North 497 572 40,000 -341 Level Indianapolis Center
Mon 12:25:34 PM 37.7733 -84.8011 341° North 488 562 39,300 -1,258 Descending Indianapolis Center
Mon 12:26:36 PM 37.9047 -84.8600 341° North 495 570 37,400 -1,902 Descending Indianapolis Center
Mon 12:27:37 PM 38.0403 -84.9167 342° North 507 583 35,400 -1,659 Descending Indianapolis Center
Mon 12:28:39 PM 38.1744 -84.9758 341° North 510 587 34,000 -683 Descending Indianapolis Center
Mon 12:29:40 PM 38.3344 -85.0433 342° North 516 594 34,000  Level Indianapolis Center
Mon 12:30:42 PM 38.4683 -85.1067 340° North 515 593 34,000  Level Indianapolis Center
Mon 12:31:44 PM 38.6025 -85.1675 340° North 513 590 34,000  Level Indianapolis Center
Mon 12:32:45 PM 38.7300 -85.2253 341° North 522 601 34,000 -393 Level Indianapolis Center
Mon 12:33:46 PM 38.8633 -85.2867 340° North 513 590 33,200 -780 Descending Indianapolis Center
Mon 12:34:48 PM 38.9958 -85.3467 341° North 509 586 32,400 -829 Descending Indianapolis Center
Mon 12:35:49 PM 39.1617 -85.4231 340° North 525 604 31,500 -829 Descending Indianapolis Center
Mon 12:36:51 PM 39.3014 -85.4861 341° North 533 613 30,700 -726 Descending Indianapolis Center
Mon 12:37:53 PM 39.4381 -85.5481 341° North 526 605 30,000 -537 Descending Indianapolis Center
Mon 12:38:54 PM 39.5717 -85.6100 340° North 517 595 29,600 -976 Descending Indianapolis Center
Mon 12:39:56 PM 39.7039 -85.6706 341° North 511 588 28,000 -1,512 Descending Indianapolis Center
Mon 12:40:57 PM 39.8297 -85.7289 340° North 491 565 26,500 -1,512 Descending Indianapolis Center
Mon 12:41:59 PM 39.9731 -85.7958 340° North 465 535 24,900 -1,210 Descending Indianapolis Center
Mon 12:43:01 PM 40.0917 -85.8511 340° North 460 529 24,000 -439 Descending Indianapolis Center
Mon 12:44:02 PM 40.2058 -85.9047 340° North 446 513 24,000 -79 Level Indianapolis Center
Mon 12:44:17 PM 40.2289 -85.9139 343° North 443 510 23,900 -779 Descending Chicago Center
Mon 12:45:19 PM 40.3436 -85.9689 340° North 442 509 23,000 -435 Descending Chicago Center
Mon 12:46:21 PM 40.4789 -86.0322 340° North 435 501 23,000 -194 Level Chicago Center
Mon 12:47:23 PM 40.5992 -86.0550 352° North 443 510 22,600 -1,296 Descending Chicago Center
Mon 12:48:26 PM 40.7119 -86.0628 357° North 442 509 20,300 -2,640 Descending Chicago Center
Mon 12:49:28 PM 40.8200 -86.1681 324° Northwest 409 471 17,100 -2,613 Descending Chicago Center
Mon 12:50:30 PM 40.9036 -86.2633 319° Northwest 397 457 14,900 -2,177 Descending Chicago Center
Mon 12:51:32 PM 40.9861 -86.3589 319° Northwest 394 453 12,600 -1,887 Descending Chicago Center
Mon 12:52:34 PM 41.0592 -86.4544 315° West 374 430 11,000 -1,065 Descending Chicago Center
Mon 12:53:36 PM 41.1075 -86.5736 298° West 366 421 10,400 -484 Descending Chicago Center
Mon 12:54:38 PM 41.1692 -86.6794 308° West 362 417 10,000 -194 Descending Chicago Center
Mon 12:55:40 PM 41.2497 -86.7883 315° West 362 417 10,000 -387 Level Chicago Center
Mon 12:56:42 PM 41.3164 -86.8822 313° West 355 409 9,200 -774 Descending Chicago Center
Mon 12:57:44 PM 41.3681 -86.9536 314° West 275 316 8,400 -871 Descending Chicago Center
Mon 12:58:46 PM 41.4314 -87.0408 314° West 275 316 7,400 -1,000 Descending Chicago Center
Mon 12:59:50 PM 41.4772 -87.1203 308° West 274 315 6,300 -762 Descending Chicago Center
Mon 01:00:52 PM 41.5069 -87.2022 296° West 255 293 5,800 -336 Descending Chicago Center
Mon 01:01:55 PM 41.5403 -87.2825 299° West 251 289 5,600 -528 Descending Chicago Center
Mon 01:02:57 PM 41.5725 -87.3606 299° West 245 282 4,700 -726 Descending Chicago Center
Mon 01:03:59 PM 41.6100 -87.4533 298° West 241 277 4,100 -339 Descending Chicago Center
Mon 01:05:01 PM 41.6419 -87.5300 299° West 240 276 4,000 -194 Descending Chicago Center
Mon 01:06:03 PM 41.6719 -87.5986 300° West 231 266 3,700 -629 Descending Chicago Center
Mon 01:07:05 PM 41.7078 -87.6453 316° Northwest 203 234 2,700 -968 Descending Chicago Center
Mon 01:08:07 PM 41.7456 -87.6975 314° West 179 206 1,700 -774 Descending Chicago Center
Mon 01:09:09 PM 41.7683 -87.7294 314° West 148 170 1,100 -387 Descending Chicago Center
Mon 01:10:11 PM 41.7903 -87.7606 313° West 143 165 900 -194 Descending Chicago Center

Login

Don't have an account? Register now (free) for customized features, flight alerts, and more!